Time;durP1;ratioP1;P1;durP2;ratioP2;P2;SDS_P1;SDS_P2;PMS_P1;PMS_P2;Temp;Humidity;BMP_temperature;BMP_pressure;BME280_temperature;BME280_humidity;BME280_pressure;Samples;Min_cycle;Max_cycle;Signal;HPM_P1;HPM_P2
2021/08/29 04:09:54;;;;;;;14.35;9.85;;;;;;;14.69;100.00;100632.75;2613456;36;20031;-44
2021/08/29 04:12:26;;;;;;;10.07;8.75;;;;;;;14.61;100.00;100630.16;2614441;36;20038;-45
2021/08/29 04:14:55;;;;;;;10.05;9.00;;;;;;;14.65;100.00;100631.91;2614508;36;20467;-46
2021/08/29 04:17:24;;;;;;;13.15;9.68;;;;;;;14.57;100.00;100624.94;2613927;36;20038;-44
2021/08/29 04:19:52;;;;;;;10.20;8.80;;;;;;;14.66;100.00;100627.59;2613893;36;20030;-44
2021/08/29 04:22:19;;;;;;;14.50;9.70;;;;;;;14.55;100.00;100630.06;2614258;36;20041;-46
2021/08/29 04:24:47;;;;;;;10.45;8.75;;;;;;;14.64;100.00;100640.47;2614249;36;20026;-45
2021/08/29 04:27:14;;;;;;;10.82;9.00;;;;;;;14.96;100.00;100632.97;2614169;31;20562;-45
2021/08/29 04:29:41;;;;;;;11.43;8.57;;;;;;;14.99;100.00;100633.00;2615330;31;20523;-43
2021/08/29 04:32:09;;;;;;;15.60;9.10;;;;;;;14.93;100.00;100644.97;2614264;36;20026;-44
2021/08/29 04:34:38;;;;;;;10.00;8.98;;;;;;;14.90;100.00;100634.66;2613872;36;20034;-46
2021/08/29 04:37:09;;;;;;;10.35;8.35;;;;;;;15.17;100.00;100633.97;2614427;31;20030;-46
2021/08/29 04:39:40;;;;;;;10.07;9.05;;;;;;;15.14;100.00;100636.53;2614212;36;20031;-46
2021/08/29 04:42:08;;;;;;;12.50;8.43;;;;;;;15.01;100.00;100633.84;2614056;36;20042;-47
2021/08/29 04:44:35;;;;;;;9.57;7.88;;;;;;;14.75;100.00;100628.53;2614334;36;20058;-44
2021/08/29 04:47:02;;;;;;;10.73;8.70;;;;;;;14.62;100.00;100633.56;2615164;31;20569;-50
2021/08/29 04:49:29;;;;;;;9.85;7.97;;;;;;;14.70;100.00;100635.38;2614586;31;20027;-45
2021/08/29 04:51:56;;;;;;;8.85;7.75;;;;;;;14.69;100.00;100632.75;2614278;36;20029;-44
2021/08/29 04:54:24;;;;;;;9.30;7.90;;;;;;;14.61;100.00;100637.88;2613996;36;20038;-48
2021/08/29 04:56:51;;;;;;;9.00;7.80;;;;;;;14.58;100.00;100642.13;2614802;31;20046;-44
2021/08/29 04:59:18;;;;;;;10.70;8.77;;;;;;;14.56;100.00;100641.25;2613953;36;20053;-47
2021/08/29 05:01:45;;;;;;;11.07;8.82;;;;;;;14.52;100.00;100643.81;2615331;31;20426;-46
2021/08/29 05:04:13;;;;;;;10.73;8.13;;;;;;;14.50;100.00;100642.06;2613951;36;20030;-45
2021/08/29 05:06:40;;;;;;;11.57;8.50;;;;;;;14.76;100.00;100639.72;2614439;36;20030;-46
2021/08/29 05:09:07;;;;;;;9.88;8.25;;;;;;;14.96;100.00;100647.56;2615752;31;20034;-44
2021/08/29 05:11:34;;;;;;;8.95;7.88;;;;;;;14.78;100.00;100638.00;2615558;31;20065;-49
2021/08/29 05:14:01;;;;;;;8.90;8.05;;;;;;;14.72;100.00;100641.38;2615497;31;20416;-43
2021/08/29 05:16:28;;;;;;;13.82;10.13;;;;;;;14.66;100.00;100641.34;2614190;31;20038;-45
2021/08/29 05:18:55;;;;;;;10.38;9.32;;;;;;;14.73;100.00;100640.53;2614404;31;20062;-46
2021/08/29 05:21:22;;;;;;;11.45;9.55;;;;;;;14.73;100.00;100644.81;2613810;36;20042;-47
2021/08/29 05:23:49;;;;;;;9.95;8.50;;;;;;;14.80;100.00;100646.63;2613880;36;20038;-44
2021/08/29 05:26:16;;;;;;;10.70;9.45;;;;;;;14.66;100.00;100633.63;2613960;31;20031;-46
2021/08/29 05:28:44;;;;;;;9.38;8.43;;;;;;;14.75;100.00;100645.72;2613856;31;20037;-45
2021/08/29 05:31:11;;;;;;;9.18;8.23;;;;;;;14.93;100.00;100634.66;2614040;36;20542;-45
2021/08/29 05:33:38;;;;;;;10.55;9.18;;;;;;;15.13;100.00;100637.38;2614312;36;20026;-47
2021/08/29 05:36:05;;;;;;;10.80;9.70;;;;;;;15.02;100.00;100642.44;2614379;31;20023;-45
2021/08/29 05:38:32;;;;;;;10.57;9.57;;;;;;;14.89;100.00;100644.09;2613195;36;20022;-45
2021/08/29 05:40:59;;;;;;;10.50;9.45;;;;;;;15.06;100.00;100651.06;2614543;36;20227;-44
2021/08/29 05:43:26;;;;;;;9.95;8.95;;;;;;;15.19;100.00;100647.72;2614737;31;20031;-43
2021/08/29 05:45:53;;;;;;;9.05;8.15;;;;;;;15.04;100.00;100648.50;2615067;31;20527;-43
2021/08/29 05:48:21;;;;;;;8.48;7.60;;;;;;;15.09;100.00;100648.53;2614496;31;20574;-48
2021/08/29 05:50:48;;;;;;;10.13;9.13;;;;;;;15.38;100.00;100652.13;2614356;36;20038;-43
2021/08/29 05:53:15;;;;;;;10.55;9.55;;;;;;;15.23;100.00;100655.50;2614636;36;20033;-45
2021/08/29 05:55:42;;;;;;;9.18;7.53;;;;;;;15.63;100.00;100647.97;2614480;36;20030;-43
2021/08/29 05:58:10;;;;;;;9.23;7.45;;;;;;;15.51;100.00;100651.34;2614793;36;20365;-43
2021/08/29 06:00:37;;;;;;;7.85;7.05;;;;;;;15.23;100.00;100652.06;2614972;31;20046;-44
2021/08/29 06:03:04;;;;;;;8.60;7.03;;;;;;;15.41;100.00;100648.72;2614381;31;20035;-44
2021/08/29 06:05:32;;;;;;;9.93;7.53;;;;;;;15.34;100.00;100649.53;2616693;31;20038;-44
2021/08/29 06:08:03;;;;;;;8.88;7.95;;;;;;;15.42;100.00;100648.72;2614901;36;20038;-45
2021/08/29 06:10:30;;;;;;;10.70;7.53;;;;;;;15.21;100.00;100640.88;2614248;36;20432;-44
2021/08/29 06:12:57;;;;;;;11.02;8.30;;;;;;;15.19;100.00;100652.88;2613938;36;20053;-45
2021/08/29 06:15:24;;;;;;;8.57;7.72;;;;;;;15.32;100.00;100643.50;2614490;31;20042;-45
2021/08/29 06:17:52;;;;;;;8.30;7.07;;;;;;;15.62;100.00;100643.66;2615183;31;20088;-44
2021/08/29 06:20:19;;;;;;;9.15;7.38;;;;;;;15.42;100.00;100635.81;2614891;31;20076;-48
2021/08/29 06:22:46;;;;;;;8.35;6.70;;;;;;;15.33;100.00;100625.44;2613869;36;20038;-44
2021/08/29 06:25:13;;;;;;;9.73;7.75;;;;;;;15.15;100.00;100627.94;2614006;36;20068;-48
2021/08/29 06:27:41;;;;;;;9.77;7.30;;;;;;;15.33;100.00;100628.03;2615297;31;20149;-43
2021/08/29 06:30:09;;;;;;;7.03;6.38;;;;;;;15.40;100.00;100629.81;2615654;31;20031;-43
2021/08/29 06:32:37;;;;;;;6.60;5.47;;;;;;;15.33;100.00;100630.59;2614494;36;20042;-43
2021/08/29 06:35:05;;;;;;;6.68;5.40;;;;;;;14.98;100.00;100631.28;2614236;36;20420;-43
2021/08/29 06:37:32;;;;;;;5.70;5.18;;;;;;;14.92;100.00;100635.50;2614562;36;20030;-48
2021/08/29 06:39:59;;;;;;;6.13;5.53;;;;;;;14.83;100.00;100628.56;2612990;31;20065;-44
2021/08/29 06:42:26;;;;;;;6.63;5.75;;;;;;;14.99;100.00;100627.84;2614418;31;20030;-46
2021/08/29 06:44:53;;;;;;;6.03;5.47;;;;;;;14.98;100.00;100638.16;2614677;31;20018;-43
2021/08/29 06:47:20;;;;;;;6.78;6.07;;;;;;;15.04;100.00;100638.19;2614420;31;20031;-46
2021/08/29 06:49:47;;;;;;;7.68;5.25;;;;;;;14.98;100.00;100644.16;2614676;31;20030;-43
2021/08/29 06:52:14;;;;;;;5.80;5.20;;;;;;;14.98;100.00;100641.59;2614807;36;20037;-43
2021/08/29 06:54:41;;;;;;;6.40;5.18;;;;;;;14.67;100.00;100639.63;2615324;31;20046;-45
2021/08/29 06:57:09;;;;;;;7.53;5.60;;;;;;;14.63;100.00;100635.31;2616209;31;20156;-46
2021/08/29 06:59:36;;;;;;;6.60;5.47;;;;;;;14.69;100.00;100632.75;2615076;31;20037;-44
2021/08/29 07:02:03;;;;;;;6.63;5.30;;;;;;;14.83;100.00;100638.88;2615262;31;20057;-44
2021/08/29 07:04:31;;;;;;;6.13;5.53;;;;;;;15.00;100.00;100634.72;2615204;36;20031;-44
2021/08/29 07:06:59;;;;;;;9.73;5.18;;;;;;;15.21;100.00;100630.56;2616869;31;20038;-46
2021/08/29 07:09:30;;;;;;;7.07;5.57;;;;;;;14.98;100.00;100635.56;2617048;31;20100;-44
2021/08/29 07:11:57;;;;;;;7.22;6.13;;;;;;;14.83;100.00;100645.75;2615528;31;20027;-46
2021/08/29 07:14:24;;;;;;;7.22;5.95;;;;;;;14.97;100.00;100638.97;2616118;31;20606;-47
2021/08/29 07:16:51;;;;;;;6.03;5.35;;;;;;;15.11;100.00;100649.38;2615338;31;20050;-44
2021/08/29 07:19:19;;;;;;;7.55;6.15;;;;;;;15.25;100.00;100638.31;2614779;36;20026;-47
2021/08/29 07:21:46;;;;;;;6.82;6.20;;;;;;;15.37;100.00;100645.25;2614950;31;20053;-44
2021/08/29 07:24:13;;;;;;;8.32;7.07;;;;;;;15.32;100.00;100646.09;2614634;36;20041;-47
2021/08/29 07:26:40;;;;;;;8.43;6.93;;;;;;;15.20;100.00;100640.00;2614706;36;20038;-44
2021/08/29 07:29:07;;;;;;;7.32;6.63;;;;;;;15.20;100.00;100636.56;2615144;31;20057;-44
2021/08/29 07:31:34;;;;;;;7.00;6.28;;;;;;;15.50;100.00;100638.44;2614701;31;20039;-46
2021/08/29 07:34:01;;;;;;;7.45;6.50;;;;;;;15.76;100.00;100638.56;2614361;36;20724;-47
2021/08/29 07:36:29;;;;;;;6.90;6.20;;;;;;;15.94;100.00;100635.19;2614607;31;20038;-49
2021/08/29 07:38:56;;;;;;;7.03;6.22;;;;;;;15.50;100.00;100644.47;2613875;36;20047;-45
2021/08/29 07:41:24;;;;;;;7.90;6.25;;;;;;;15.90;100.00;100642.09;2615178;31;20026;-45
2021/08/29 07:43:51;;;;;;;8.32;6.15;;;;;;;15.93;100.00;100636.91;2614653;31;20037;-46
2021/08/29 07:46:24;;;;;;;7.90;6.90;;;;;;;15.82;100.00;100645.50;2614925;36;20479;-48
2021/08/29 07:48:51;;;;;;;5.35;4.82;;;;;;;15.93;100.00;100652.41;2615870;31;20027;-46
2021/08/29 07:51:18;;;;;;;5.50;4.85;;;;;;;16.17;100.00;100653.31;2614353;36;20041;-47
2021/08/29 07:53:45;;;;;;;5.93;5.32;;;;;;;16.08;100.00;100654.16;2614450;36;20041;-45
2021/08/29 07:56:12;;;;;;;5.22;4.72;;;;;;;15.95;100.00;100649.84;2614520;31;20035;-46
2021/08/29 07:58:40;;;;;;;5.57;5.03;;;;;;;15.98;100.00;100655.00;2614171;36;20064;-45
2021/08/29 08:01:07;;;;;;;5.45;4.30;;;;;;;15.84;100.00;100651.50;2614198;36;20039;-46
2021/08/29 08:03:35;;;;;;;5.50;4.95;;;;;;;15.78;100.00;100653.22;2614595;36;20082;-47
2021/08/29 08:06:04;;;;;;;4.57;4.05;;;;;;;15.97;100.00;100654.16;2615425;31;20554;-48
2021/08/29 08:08:32;;;;;;;4.68;4.00;;;;;;;15.92;100.00;100660.16;2614847;31;20462;-48
2021/08/29 08:10:59;;;;;;;4.63;3.63;;;;;;;16.24;100.00;100666.28;2614528;31;20038;-46
2021/08/29 08:13:26;;;;;;;3.65;3.35;;;;;;;16.99;100.00;100668.91;2613548;31;20030;-45
2021/08/29 08:15:53;;;;;;;3.90;3.60;;;;;;;16.82;100.00;100667.19;2614332;36;20431;-47
2021/08/29 08:18:20;;;;;;;4.45;3.13;;;;;;;16.66;100.00;100666.31;2614479;31;20058;-46
2021/08/29 08:20:48;;;;;;;4.53;4.07;;;;;;;16.89;100.00;100666.34;2614415;36;20030;-45
2021/08/29 08:23:15;;;;;;;8.60;4.03;;;;;;;17.18;100.00;100663.72;2614781;31;20597;-45
2021/08/29 08:25:42;;;;;;;4.35;3.80;;;;;;;17.26;100.00;100660.25;2614929;36;20454;-43
2021/08/29 08:28:09;;;;;;;4.22;3.42;;;;;;;17.36;100.00;100657.66;2613849;36;20030;-44
2021/08/29 08:30:36;;;;;;;3.50;3.20;;;;;;;17.22;100.00;100657.69;2614693;31;20034;-46
2021/08/29 08:33:03;;;;;;;3.90;3.50;;;;;;;17.52;100.00;100667.09;2616004;31;20455;-50
2021/08/29 08:35:30;;;;;;;3.60;3.03;;;;;;;17.62;100.00;100666.22;2614162;36;20026;-45
2021/08/29 08:37:57;;;;;;;3.30;3.10;;;;;;;17.72;100.00;100673.06;2614500;31;20038;-48
2021/08/29 08:40:24;;;;;;;3.03;2.83;;;;;;;18.11;100.00;100670.31;2614530;31;20049;-47
2021/08/29 08:42:52;;;;;;;2.80;2.60;;;;;;;17.88;100.00;100666.09;2613883;31;20035;-46
2021/08/29 08:45:19;;;;;;;5.72;3.05;;;;;;;17.75;100.00;100665.31;2614188;36;20078;-45
2021/08/29 08:47:47;;;;;;;2.78;2.35;;;;;;;18.24;100.00;100672.81;2614112;31;20124;-46
2021/08/29 08:50:15;;;;;;;3.05;2.28;;;;;;;17.83;100.00;100662.69;2614000;36;20038;-49
2021/08/29 08:52:42;;;;;;;2.50;2.30;;;;;;;18.07;100.00;100664.28;2614720;31;20043;-48
2021/08/29 08:55:11;;;;;;;2.33;2.13;;;;;;;18.13;100.00;100664.28;2614385;31;20045;-45
2021/08/29 08:57:39;;;;;;;3.22;2.10;;;;;;;18.10;100.00;100666.88;2613551;31;20035;-48
2021/08/29 09:00:06;;;;;;;2.50;2.30;;;;;;;17.98;100.00;100660.03;2614924;31;20606;-49
2021/08/29 09:02:34;;;;;;;2.47;2.28;;;;;;;17.74;100.00;100660.13;2613750;31;20042;-46
2021/08/29 09:05:01;;;;;;;6.35;2.83;;;;;;;17.47;100.00;100661.94;2613924;36;20030;-45
2021/08/29 09:07:29;;;;;;;3.60;2.50;;;;;;;17.95;100.00;100657.44;2613031;36;20038;-49
2021/08/29 09:09:56;;;;;;;3.28;2.40;;;;;;;17.69;100.00;100664.44;2613568;31;20034;-48
2021/08/29 09:12:23;;;;;;;3.45;2.20;;;;;;;17.89;100.00;100662.69;2614281;36;20564;-45
2021/08/29 09:14:57;;;;;;;2.60;2.40;;;;;;;18.04;100.00;100665.19;2614629;36;20656;-48
2021/08/29 09:17:37;;;;;;;3.22;2.58;;;;;;;17.77;100.00;100670.50;2613521;36;20065;-46
2021/08/29 09:20:17;;;;;;;4.32;2.40;;;;;;;18.09;100.00;100664.28;2611650;31;20065;-47
2021/08/29 09:22:48;;;;;;;2.33;2.13;;;;;;;18.02;100.00;100664.31;2575174;36;2004395;-48
2021/08/29 09:25:19;;;;;;;2.50;2.08;;;;;;;18.30;100.00;100667.63;2613055;31;20068;-45
2021/08/29 09:27:53;;;;;;;2.30;1.83;;;;;;;18.58;100.00;100662.25;2611844;31;20065;-45
2021/08/29 09:30:23;;;;;;;2.30;2.00;;;;;;;18.55;100.00;100663.13;2614788;31;20057;-48
2021/08/29 09:32:59;;;;;;;3.78;2.05;;;;;;;19.32;100.00;100660.72;2614323;36;20691;-48
2021/08/29 09:35:30;;;;;;;2.08;1.88;;;;;;;18.54;100.00;100657.97;2614376;31;20613;-46
2021/08/29 09:37:59;;;;;;;2.00;1.80;;;;;;;19.16;100.00;100664.34;2614262;31;20035;-47
2021/08/29 09:40:35;;;;;;;2.22;2.03;;;;;;;19.45;99.32;100656.22;2614212;36;20034;-47
2021/08/29 09:43:03;;;;;;;;;;;;;;;19.19;100.00;100663.47;2614756;31;20061;-47
2021/08/29 09:45:41;;;;;;;3.53;1.80;;;;;;;19.88;95.83;100658.38;2614139;36;19998;-47
2021/08/29 09:48:14;;;;;;;2.25;1.60;;;;;;;19.77;96.90;100662.81;2614274;31;20037;-46
2021/08/29 09:50:46;;;;;;;1.42;1.33;;;;;;;20.04;95.13;100652.06;2613889;36;20042;-46
2021/08/29 09:53:21;;;;;;;2.15;1.63;;;;;;;19.67;98.99;100656.88;2577051;31;2004379;-46
2021/08/29 09:55:49;;;;;;;1.90;1.80;;;;;;;18.94;98.60;100655.03;2613903;36;20052;-46
2021/08/29 09:58:34;;;;;;;2.42;1.77;;;;;;;19.69;91.45;100657.75;2614071;36;20053;-49
2021/08/29 10:01:12;;;;;;;3.65;1.50;;;;;;;19.28;98.99;100651.25;2615227;31;20031;-47
2021/08/29 10:03:48;;;;;;;3.47;1.70;;;;;;;19.71;93.67;100647.31;2614847;31;20558;-45
2021/08/29 10:06:16;;;;;;;;;;;;;;;19.07;95.89;100649.72;2577606;36;2004417;-46
2021/08/29 10:08:46;;;;;;;2.30;1.58;;;;;;;19.05;100.00;100650.63;2614016;36;19946;-47
2021/08/29 10:11:14;;;;;;;1.63;1.52;;;;;;;20.01;97.94;100651.25;2614092;36;20038;-47
2021/08/29 10:13:41;;;;;;;1.92;1.83;;;;;;;20.62;94.22;100657.31;2614089;36;20042;-48
2021/08/29 10:16:09;;;;;;;1.45;1.35;;;;;;;20.66;94.70;100646.84;2614086;36;20034;-49
2021/08/29 10:18:40;;;;;;;2.28;1.63;;;;;;;21.27;93.32;100653.56;2614872;31;20038;-43
2021/08/29 10:21:12;;;;;;;2.17;1.48;;;;;;;21.97;85.95;100647.81;2614883;31;20031;-47
2021/08/29 10:23:44;;;;;;;1.40;1.30;;;;;;;23.51;71.99;100654.41;2613454;31;20061;-47
2021/08/29 10:26:13;;;;;;;1.40;1.30;;;;;;;21.99;81.70;100644.28;2615751;31;20045;-48
2021/08/29 10:29:07;;;;;;;1.73;1.63;;;;;;;22.02;87.71;100641.59;2615623;31;20026;-45
2021/08/29 10:31:41;;;;;;;1.85;1.75;;;;;;;22.86;78.27;100636.13;2578787;31;2004570;-48
2021/08/29 10:34:09;;;;;;;2.25;1.52;;;;;;;23.67;79.97;100646.19;2614945;31;20027;-43
2021/08/29 10:36:36;;;;;;;2.30;1.55;;;;;;;23.83;73.47;100634.34;2615175;31;20037;-49
2021/08/29 10:39:04;;;;;;;2.15;1.52;;;;;;;22.27;80.24;100625.41;2616034;31;20069;-49
2021/08/29 10:41:31;;;;;;;2.13;1.27;;;;;;;22.34;75.91;100627.84;2615372;36;20034;-50
2021/08/29 10:43:59;;;;;;;1.55;1.20;;;;;;;21.59;81.23;100626.91;2613027;36;20057;-48
2021/08/29 10:46:27;;;;;;;1.60;1.25;;;;;;;22.12;81.59;100621.41;2614010;36;20416;-50
2021/08/29 10:48:55;;;;;;;1.30;1.20;;;;;;;26.12;63.73;100625.59;2614585;31;20152;-47
2021/08/29 10:51:27;;;;;;;1.38;1.23;;;;;;;25.43;60.49;100622.09;2614449;36;20041;-50
2021/08/29 10:53:56;;;;;;;1.55;1.45;;;;;;;26.59;61.10;100618.41;2614726;31;20038;-52
2021/08/29 10:56:25;;;;;;;1.10;1.00;;;;;;;26.57;59.42;100628.13;2614336;36;20038;-47
2021/08/29 10:59:08;;;;;;;1.75;1.50;;;;;;;25.35;64.99;100623.22;2614386;31;20037;-48
2021/08/29 11:01:49;;;;;;;1.30;1.20;;;;;;;25.01;67.62;100622.72;2614225;31;20030;-49
2021/08/29 11:04:25;;;;;;;1.80;1.27;;;;;;;26.28;60.47;100625.81;2578214;36;2004359;-50
2021/08/29 11:06:54;;;;;;;1.40;1.30;;;;;;;28.08;54.74;100631.03;2614213;36;20026;-45
2021/08/29 11:09:37;;;;;;;1.67;1.40;;;;;;;28.55;53.17;100622.63;2614018;36;20061;-50
2021/08/29 11:12:13;;;;;;;1.85;1.00;;;;;;;27.30;55.38;100625.91;2614356;36;20053;-49
2021/08/29 11:14:53;;;;;;;1.17;1.08;;;;;;;26.65;56.95;100630.44;2614316;36;20038;-47
2021/08/29 11:17:23;;;;;;;1.33;1.23;;;;;;;24.56;66.27;100623.38;2579767;31;2004244;-50
2021/08/29 11:19:55;;;;;;;1.35;1.25;;;;;;;27.82;53.04;100636.69;2615002;31;20038;-47
2021/08/29 11:22:24;;;;;;;1.42;1.08;;;;;;;31.17;43.75;100645.13;2615158;31;20030;-46
2021/08/29 11:25:12;;;;;;;1.20;1.10;;;;;;;31.64;41.70;100646.66;2613170;36;20057;-46
2021/08/29 11:27:47;;;;;;;1.20;1.10;;;;;;;29.84;44.58;100639.63;2614193;36;20038;-47
2021/08/29 11:30:21;;;;;;;1.63;1.10;;;;;;;31.39;40.10;100644.72;2578332;31;2004292;-46
2021/08/29 11:32:57;;;;;;;1.20;1.10;;;;;;;29.23;46.31;100643.75;2614640;36;20027;-44
2021/08/29 11:35:52;;;;;;;0.90;0.90;;;;;;;27.90;49.22;100639.81;2613529;31;20553;-49
2021/08/29 11:38:39;;;;;;;1.00;0.88;;;;;;;28.59;46.90;100629.44;2578249;31;2004484;-45
2021/08/29 11:41:14;;;;;;;0.73;0.73;;;;;;;30.39;40.99;100628.59;2614213;31;20591;-48
2021/08/29 11:43:46;;;;;;;1.20;1.10;;;;;;;29.81;41.65;100616.03;2614608;31;20082;-46
2021/08/29 11:46:27;;;;;;;1.08;0.85;;;;;;;30.50;38.65;100612.09;2578253;31;2004416;-50
2021/08/29 11:49:03;;;;;;;1.13;0.70;;;;;;;32.73;35.31;100616.56;2613869;36;20578;-48
2021/08/29 11:51:35;;;;;;;0.82;0.82;;;;;;;30.35;39.82;100605.94;2614122;36;20565;-45
2021/08/29 11:54:05;;;;;;;1.15;1.05;;;;;;;30.04;39.21;100615.56;2614071;36;20601;-47
2021/08/29 11:56:34;;;;;;;2.05;1.35;;;;;;;29.98;38.78;100615.94;2613540;31;20031;-48
2021/08/29 11:59:07;;;;;;;1.10;1.00;;;;;;;29.10;40.70;100604.00;2614049;36;20034;-46
2021/08/29 12:01:35;;;;;;;1.25;1.10;;;;;;;28.10;44.67;100602.00;2614123;36;20625;-47
2021/08/29 12:04:05;;;;;;;1.30;1.20;;;;;;;26.94;47.54;100607.31;2614618;31;20030;-46
2021/08/29 12:07:05;;;;;;;1.30;0.98;;;;;;;27.06;47.51;100607.63;2614956;31;20030;-49
2021/08/29 12:09:40;;;;;;;1.58;1.08;;;;;;;25.41;53.57;100609.03;2578335;31;2004410;-49
2021/08/29 12:12:15;;;;;;;1.33;1.08;;;;;;;25.04;56.14;100605.09;2614416;31;20038;-48
2021/08/29 12:14:43;;;;;;;1.27;1.17;;;;;;;25.84;50.11;100607.47;2614112;36;20613;-47
2021/08/29 12:17:12;;;;;;;2.65;1.15;;;;;;;27.89;46.75;100607.38;2615069;31;20279;-47
2021/08/29 12:19:41;;;;;;;1.00;1.00;;;;;;;28.73;44.13;100599.75;2616533;31;20049;-46
2021/08/29 12:22:09;;;;;;;2.08;1.30;;;;;;;28.12;45.36;100606.28;2614089;36;20057;-46
2021/08/29 12:24:39;;;;;;;1.35;1.25;;;;;;;27.21;47.44;100607.91;2614810;31;20038;-46
2021/08/29 12:27:07;;;;;;;1.60;1.30;;;;;;;25.92;50.72;100610.59;2614797;31;20041;-46
2021/08/29 12:29:44;;;;;;;1.30;1.20;;;;;;;24.61;56.67;100611.81;2614141;31;20034;-47
2021/08/29 12:32:14;;;;;;;1.33;1.20;;;;;;;24.86;54.11;100600.50;2614239;36;20034;-50
2021/08/29 12:34:42;;;;;;;1.92;1.25;;;;;;;25.28;53.95;100603.41;2614606;31;20027;-46
2021/08/29 12:37:12;;;;;;;1.88;1.10;;;;;;;24.45;59.21;100594.94;2614085;31;20031;-47
2021/08/29 12:39:40;;;;;;;1.20;1.10;;;;;;;24.32;60.57;100589.19;2613751;36;20411;-49
2021/08/29 12:42:19;;;;;;;2.35;1.08;;;;;;;23.91;60.13;100580.06;2613948;36;20053;-49
2021/08/29 12:44:47;;;;;;;1.10;1.00;;;;;;;23.71;61.18;100579.81;2577927;31;2004380;-47
2021/08/29 12:47:15;;;;;;;1.20;1.10;;;;;;;23.96;58.00;100579.91;2613726;36;21003;-49
2021/08/29 12:49:42;;;;;;;1.40;1.30;;;;;;;23.27;62.08;100574.09;2613890;36;20030;-45
2021/08/29 12:52:16;;;;;;;1.98;1.17;;;;;;;23.72;59.71;100592.00;2613772;36;20035;-48
2021/08/29 12:54:44;;;;;;;1.98;1.30;;;;;;;23.80;57.45;100588.25;2578525;31;2004379;-45
2021/08/29 12:57:11;;;;;;;1.67;1.30;;;;;;;23.19;60.58;100581.31;2613688;36;20037;-46
2021/08/29 12:59:40;;;;;;;1.55;1.45;;;;;;;22.90;61.70;100582.97;2613970;36;20573;-48
2021/08/29 13:02:07;;;;;;;2.40;1.60;;;;;;;22.29;64.24;100584.50;2614763;31;20038;-45
2021/08/29 13:04:34;;;;;;;1.70;1.60;;;;;;;22.23;65.98;100582.03;2614733;31;20546;-46
2021/08/29 13:07:08;;;;;;;1.55;1.45;;;;;;;22.32;65.94;100581.81;2614413;31;20038;-45
2021/08/29 13:09:36;;;;;;;1.88;1.77;;;;;;;21.84;72.21;100575.06;2613634;36;20566;-46
2021/08/29 13:12:05;;;;;;;1.65;1.55;;;;;;;21.37;71.59;100576.09;2614407;31;20035;-45
2021/08/29 13:14:37;;;;;;;3.72;1.60;;;;;;;21.25;72.81;100571.09;2613621;36;20030;-45
2021/08/29 13:17:21;;;;;;;1.65;1.55;;;;;;;21.26;73.32;100572.81;2613655;31;20035;-46
2021/08/29 13:20:06;;;;;;;2.45;1.52;;;;;;;20.83;74.67;100574.50;2577697;31;2004550;-46
2021/08/29 13:22:37;;;;;;;1.42;1.33;;;;;;;20.76;74.39;100566.88;2613567;31;22481;-46
2021/08/29 13:25:26;;;;;;;1.58;1.48;;;;;;;20.64;75.91;100564.47;2613325;36;20038;-46
2021/08/29 13:27:56;;;;;;;1.65;1.20;;;;;;;21.07;73.13;100567.13;2577259;36;2004586;-47
2021/08/29 13:30:29;;;;;;;1.98;1.50;;;;;;;20.65;74.38;100566.19;2613786;31;20163;-47
2021/08/29 13:32:57;;;;;;;1.83;1.40;;;;;;;20.89;75.05;100568.34;2614440;31;20031;-48
2021/08/29 13:35:31;;;;;;;1.80;1.70;;;;;;;20.93;74.25;100564.78;2614284;31;20026;-45
2021/08/29 13:38:01;;;;;;;1.48;1.35;;;;;;;20.73;75.24;100562.56;2614854;31;20030;-45
2021/08/29 13:40:33;;;;;;;3.03;1.80;;;;;;;20.50;75.36;100570.78;2614300;31;20089;-45
2021/08/29 13:43:02;;;;;;;1.52;1.42;;;;;;;20.35;77.67;100574.47;2614306;31;20594;-45
2021/08/29 13:45:35;;;;;;;1.83;1.38;;;;;;;20.80;74.98;100565.91;2614287;31;20050;-44
2021/08/29 13:48:04;;;;;;;1.10;1.10;;;;;;;20.59;75.52;100569.75;2614167;36;20442;-44
2021/08/29 13:50:33;;;;;;;1.55;1.38;;;;;;;20.29;75.89;100571.06;2614818;31;20070;-44
2021/08/29 13:53:10;;;;;;;1.67;1.58;;;;;;;20.20;78.91;100569.50;2614698;31;20045;-45
2021/08/29 13:55:41;;;;;;;1.27;1.10;;;;;;;20.12;79.68;100563.56;2612696;36;20057;-44
2021/08/29 13:58:10;;;;;;;1.20;1.10;;;;;;;19.77;82.43;100564.09;2613976;31;20041;-44
2021/08/29 14:00:41;;;;;;;1.65;1.30;;;;;;;19.99;80.08;100565.50;2614553;31;20031;-48
2021/08/29 14:03:08;;;;;;;0.82;0.82;;;;;;;20.12;80.20;100566.16;2615455;31;20030;-48
2021/08/29 14:05:39;;;;;;;0.85;0.85;;;;;;;19.88;83.92;100563.94;2615170;31;20022;-45
2021/08/29 14:08:06;;;;;;;0.80;0.80;;;;;;;19.96;82.29;100568.13;2614165;36;20587;-43
2021/08/29 14:10:35;;;;;;;0.85;0.85;;;;;;;20.10;82.48;100557.50;2614205;36;20054;-47
2021/08/29 14:13:03;;;;;;;1.02;0.93;;;;;;;19.88;84.66;100553.56;2614565;36;20606;-48
2021/08/29 14:15:31;;;;;;;1.02;0.95;;;;;;;19.70;88.88;100552.94;2613913;31;20049;-49
2021/08/29 14:17:59;;;;;;;0.70;0.70;;;;;;;20.03;81.76;100548.97;2614776;31;20634;-46
2021/08/29 14:20:28;;;;;;;2.65;0.80;;;;;;;20.14;83.27;100555.72;2614117;36;20033;-43
2021/08/29 14:22:55;;;;;;;0.95;0.90;;;;;;;19.66;87.36;100542.59;2615169;31;20034;-44
2021/08/29 14:25:24;;;;;;;1.15;1.05;;;;;;;19.41;88.62;100552.41;2614425;36;20030;-49
2021/08/29 14:27:52;;;;;;;0.98;0.93;;;;;;;19.66;85.51;100547.78;2614633;31;20038;-47
2021/08/29 14:30:30;;;;;;;0.65;0.60;;;;;;;19.98;86.70;100547.31;2614543;36;20065;-43
2021/08/29 14:32:59;;;;;;;1.60;0.77;;;;;;;19.74;87.61;100541.63;2614886;31;20034;-44
2021/08/29 14:35:28;;;;;;;0.68;0.60;;;;;;;19.58;85.93;100548.72;2614753;31;20177;-45
2021/08/29 14:37:56;;;;;;;1.10;1.05;;;;;;;19.81;87.93;100540.63;2614492;36;20078;-45
2021/08/29 14:40:24;;;;;;;0.80;0.80;;;;;;;19.80;87.47;100546.72;2614410;31;20030;-45
2021/08/29 14:42:51;;;;;;;0.80;0.80;;;;;;;19.94;85.19;100543.91;2614855;31;20030;-47
2021/08/29 14:45:20;;;;;;;0.95;0.95;;;;;;;19.96;86.35;100543.88;2614557;31;20030;-46
2021/08/29 14:47:47;;;;;;;0.65;0.65;;;;;;;19.74;87.63;100541.63;2614159;36;20054;-44
2021/08/29 14:50:15;;;;;;;0.70;0.63;;;;;;;19.45;89.81;100544.56;2614630;36;20069;-44
2021/08/29 14:52:42;;;;;;;0.90;0.80;;;;;;;19.39;92.95;100536.84;2616294;31;20035;-47
2021/08/29 14:55:09;;;;;;;0.70;0.70;;;;;;;18.81;98.64;100537.53;2614315;31;20038;-46
2021/08/29 14:57:37;;;;;;;1.33;0.63;;;;;;;18.97;100.00;100540.84;2614416;31;20038;-47
2021/08/29 15:00:06;;;;;;;1.13;1.02;;;;;;;18.76;100.00;100537.56;2615140;31;20038;-44
2021/08/29 15:02:35;;;;;;;1.00;0.90;;;;;;;18.49;100.00;100537.84;2615592;31;20547;-46
2021/08/29 15:05:03;;;;;;;1.23;0.70;;;;;;;18.33;100.00;100542.28;2614835;31;20034;-46
2021/08/29 15:07:31;;;;;;;0.68;0.68;;;;;;;18.36;100.00;100534.50;2614680;36;20022;-44
2021/08/29 15:09:59;;;;;;;0.40;0.40;;;;;;;18.68;100.00;100535.94;2614073;36;20030;-44
2021/08/29 15:12:27;;;;;;;0.60;0.60;;;;;;;18.54;100.00;100531.75;2614951;31;20030;-46
2021/08/29 15:14:54;;;;;;;1.90;0.47;;;;;;;18.71;100.00;100525.53;2614184;36;20828;-44
2021/08/29 15:17:26;;;;;;;0.50;0.50;;;;;;;18.61;100.00;100532.53;2614645;36;20038;-48
2021/08/29 15:19:55;;;;;;;0.73;0.40;;;;;;;18.23;100.00;100528.53;2614851;31;20537;-46
2021/08/29 15:22:22;;;;;;;0.30;0.30;;;;;;;18.22;100.00;100529.44;2615318;31;20049;-45
2021/08/29 15:24:49;;;;;;;0.55;0.38;;;;;;;18.35;100.00;100525.00;2615309;31;20038;-47
2021/08/29 15:27:16;;;;;;;0.60;0.60;;;;;;;18.19;100.00;100520.81;2615485;31;20038;-46
2021/08/29 15:29:44;;;;;;;2.53;0.60;;;;;;;18.23;100.00;100522.50;2614203;36;20035;-51
2021/08/29 15:32:13;;;;;;;0.75;0.47;;;;;;;18.22;100.00;100513.88;2617036;31;20031;-47
2021/08/29 15:34:43;;;;;;;1.60;0.70;;;;;;;18.25;100.00;100510.38;2614846;36;20089;-44
2021/08/29 15:37:14;;;;;;;0.70;0.70;;;;;;;18.35;100.00;100503.38;2614553;31;20027;-45
2021/08/29 15:39:44;;;;;;;1.17;0.90;;;;;;;18.37;100.00;100499.06;2614588;31;20058;-48